createdAt,value
2022-11-29T00:01:25.203Z,9.05
2022-11-29T00:03:52.532Z,9.00
2022-11-29T00:06:22.134Z,9.03
2022-11-29T00:08:49.415Z,8.98
2022-11-29T00:11:39.445Z,9.04
2022-11-29T00:14:07.809Z,9.01
2022-11-29T00:16:34.297Z,8.95
2022-11-29T00:19:01.461Z,8.98
2022-11-29T00:21:27.841Z,8.96
2022-11-29T00:23:54.512Z,8.96
2022-11-29T00:26:21.446Z,8.93
2022-11-29T00:28:47.827Z,8.90
2022-11-29T00:31:20.034Z,8.98
2022-11-29T00:33:46.434Z,8.94
2022-11-29T00:36:14.063Z,8.98
2022-11-29T00:38:40.760Z,8.97
2022-11-29T00:41:07.683Z,8.98
2022-11-29T00:43:34.032Z,9.00
2022-11-29T00:46:00.514Z,8.99
2022-11-29T00:48:26.968Z,9.01
2022-11-29T00:50:53.627Z,9.04
2022-11-29T00:53:20.076Z,9.03
2022-11-29T00:55:49.986Z,9.06
2022-11-29T00:58:16.578Z,9.05
2022-11-29T01:00:43.094Z,9.06
2022-11-29T01:03:09.758Z,9.09
2022-11-29T01:05:36.109Z,9.05
2022-11-29T01:08:02.702Z,9.10
2022-11-29T01:10:29.096Z,9.09
2022-11-29T01:12:56.163Z,9.13
2022-11-29T01:15:22.610Z,9.14
2022-11-29T01:17:49.396Z,9.16
2022-11-29T01:20:16.290Z,9.16
2022-11-29T01:22:42.773Z,9.18
2022-11-29T01:25:12.150Z,9.24
2022-11-29T01:27:38.581Z,9.21
2022-11-29T01:30:07.114Z,9.23
2022-11-29T01:32:33.522Z,9.23
2022-11-29T01:34:59.834Z,9.25
2022-11-29T01:37:28.787Z,9.28
2022-11-29T01:39:55.282Z,9.26
2022-11-29T01:42:21.718Z,9.28
2022-11-29T01:45:18.969Z,9.28
2022-11-29T01:47:46.184Z,9.26
2022-11-29T01:50:13.249Z,9.26
2022-11-29T01:52:39.987Z,9.25
2022-11-29T01:55:07.555Z,9.28
2022-11-29T01:57:36.701Z,9.32
2022-11-29T02:00:13.913Z,9.35
2022-11-29T02:02:57.178Z,9.37
2022-11-29T02:05:25.296Z,9.33
2022-11-29T02:07:54.483Z,9.37
2022-11-29T02:10:30.799Z,9.40
2022-11-29T02:13:13.578Z,9.40
2022-11-29T02:15:50.261Z,9.40
2022-11-29T02:18:40.208Z,9.37
2022-11-29T02:21:13.368Z,9.37
2022-11-29T02:23:58.173Z,9.28
2022-11-29T02:27:02.361Z,9.34
2022-11-29T02:30:05.863Z,9.35
2022-11-29T02:32:49.740Z,9.36
2022-11-29T02:35:37.849Z,9.37
2022-11-29T02:38:36.751Z,9.39
2022-11-29T02:41:32.984Z,9.37
2022-11-29T02:44:40.013Z,9.29
2022-11-29T02:47:36.435Z,9.27
2022-11-29T02:50:40.993Z,9.23
2022-11-29T02:53:32.052Z,9.24
2022-11-29T02:56:20.570Z,9.23
2022-11-29T02:58:50.874Z,9.25
2022-11-29T03:01:29.256Z,9.24
2022-11-29T03:04:23.447Z,9.25
2022-11-29T03:07:19.785Z,9.25
2022-11-29T03:10:20.457Z,9.26
2022-11-29T03:12:52.749Z,9.23
2022-11-29T03:15:43.900Z,9.23
2022-11-29T03:18:34.929Z,9.22
2022-11-29T03:21:12.485Z,9.21
2022-11-29T03:23:54.827Z,9.21
2022-11-29T03:26:29.577Z,9.21
2022-11-29T03:29:09.513Z,9.17
2022-11-29T03:31:46.449Z,9.16
2022-11-29T03:34:57.170Z,9.18
2022-11-29T03:37:38.374Z,9.09
2022-11-29T03:40:13.702Z,9.06
2022-11-29T03:43:01.563Z,9.08
2022-11-29T03:45:43.485Z,9.10
2022-11-29T03:48:20.323Z,9.13
2022-11-29T03:50:57.775Z,9.17
2022-11-29T03:53:47.204Z,9.21
2022-11-29T03:56:33.100Z,9.23
2022-11-29T03:59:24.319Z,9.19
2022-11-29T04:02:04.097Z,9.21
2022-11-29T04:04:44.871Z,9.22
2022-11-29T04:07:24.683Z,9.25
2022-11-29T04:10:13.532Z,9.25
2022-11-29T04:13:09.767Z,9.24
2022-11-29T04:15:36.220Z,9.21
2022-11-29T04:18:24.245Z,9.24
2022-11-29T04:21:18.632Z,9.28
2022-11-29T04:24:22.664Z,9.30
2022-11-29T04:27:20.444Z,9.30
2022-11-29T04:30:04.044Z,9.29
2022-11-29T04:32:43.816Z,9.26
2022-11-29T04:35:51.590Z,9.33
2022-11-29T04:38:41.390Z,9.27
2022-11-29T04:41:38.488Z,9.26
2022-11-29T04:44:19.207Z,9.24
2022-11-29T04:47:12.001Z,9.27
2022-11-29T04:50:09.279Z,9.32
2022-11-29T04:53:04.931Z,9.33
2022-11-29T04:55:41.851Z,9.32
2022-11-29T04:58:45.056Z,9.30
2022-11-29T05:01:23.280Z,9.28
2022-11-29T05:04:00.903Z,9.25
2022-11-29T05:07:17.447Z,9.27
2022-11-29T05:10:03.049Z,9.27
2022-11-29T05:13:11.120Z,9.32
2022-11-29T05:16:02.544Z,9.34
2022-11-29T05:19:11.586Z,9.38
2022-11-29T05:21:52.175Z,9.35
2022-11-29T05:24:46.325Z,9.36
2022-11-29T05:27:43.344Z,9.33
2022-11-29T05:30:16.742Z,9.28
2022-11-29T05:32:57.537Z,9.30
2022-11-29T05:35:39.024Z,9.29
2022-11-29T05:38:12.372Z,9.25
2022-11-29T05:40:53.714Z,9.29
2022-11-29T05:43:42.970Z,9.26
2022-11-29T05:46:13.829Z,9.26
2022-11-29T05:48:52.848Z,9.28
2022-11-29T05:51:44.546Z,9.23
2022-11-29T05:54:26.413Z,9.19
2022-11-29T05:57:08.150Z,9.22
2022-11-29T05:59:38.301Z,9.20
2022-11-29T06:02:25.836Z,9.21
2022-11-29T06:05:07.152Z,9.23
2022-11-29T06:07:48.217Z,9.11
2022-11-29T06:10:18.319Z,9.14
2022-11-29T06:13:11.364Z,9.18
2022-11-29T06:16:10.978Z,9.15
2022-11-29T06:19:25.488Z,9.12
2022-11-29T06:21:57.848Z,9.12
2022-11-29T06:24:39.124Z,9.11
2022-11-29T06:27:14.688Z,9.06
2022-11-29T06:30:02.851Z,8.98
2022-11-29T06:32:54.355Z,9.01
2022-11-29T06:35:45.647Z,9.04
2022-11-29T06:38:24.623Z,9.05
2022-11-29T06:40:51.545Z,9.02
2022-11-29T06:43:18.192Z,9.05
2022-11-29T06:45:55.888Z,9.06
2022-11-29T06:48:26.367Z,9.04
2022-11-29T06:51:20.615Z,9.06
2022-11-29T06:53:52.239Z,9.05
2022-11-29T06:56:34.575Z,9.10
2022-11-29T06:59:31.696Z,9.14
2022-11-29T07:02:05.772Z,9.08
2022-11-29T07:04:53.655Z,9.10
2022-11-29T07:07:22.214Z,9.09
2022-11-29T07:09:50.760Z,9.13
2022-11-29T07:12:18.586Z,9.12
2022-11-29T07:14:45.849Z,9.13
2022-11-29T07:17:27.513Z,9.09
2022-11-29T07:20:41.114Z,9.01
2022-11-29T07:23:28.097Z,8.97
2022-11-29T07:26:08.412Z,8.90
2022-11-29T07:28:53.481Z,8.75
2022-11-29T07:31:57.135Z,8.72
2022-11-29T07:34:58.415Z,8.64
2022-11-29T07:37:27.790Z,8.55
2022-11-29T07:40:27.294Z,8.53
2022-11-29T07:43:35.048Z,8.54
2022-11-29T07:46:01.781Z,8.52
2022-11-29T07:48:28.211Z,8.57
2022-11-29T07:50:56.413Z,8.61
2022-11-29T07:53:23.584Z,8.67
2022-11-29T07:55:50.379Z,8.67
2022-11-29T07:58:18.307Z,8.62
2022-11-29T08:00:44.986Z,8.62
2022-11-29T08:03:11.608Z,8.60
2022-11-29T08:05:38.535Z,8.54
2022-11-29T08:08:06.313Z,8.57
2022-11-29T08:10:32.786Z,8.51
2022-11-29T08:12:59.093Z,8.56
2022-11-29T08:15:25.888Z,8.58
2022-11-29T08:17:53.299Z,8.60
2022-11-29T08:20:19.783Z,8.54
2022-11-29T08:22:54.215Z,8.64
2022-11-29T08:25:20.642Z,8.60
2022-11-29T08:27:46.957Z,8.61
2022-11-29T08:30:13.465Z,8.68
2022-11-29T08:32:39.856Z,8.69
2022-11-29T08:35:06.341Z,8.65
2022-11-29T08:37:32.724Z,8.64
2022-11-29T08:39:59.125Z,8.70
2022-11-29T08:42:25.545Z,8.69
2022-11-29T08:44:51.976Z,8.70
2022-11-29T08:47:36.721Z,8.70
2022-11-29T08:50:08.018Z,8.78
2022-11-29T08:52:58.261Z,8.74
2022-11-29T08:55:27.868Z,8.72
2022-11-29T08:58:00.190Z,8.79
2022-11-29T09:00:26.488Z,8.77
2022-11-29T09:02:52.849Z,8.80
2022-11-29T09:05:19.281Z,8.80
2022-11-29T09:07:46.857Z,8.84
2022-11-29T09:10:13.261Z,8.86
2022-11-29T09:12:40.261Z,8.89
2022-11-29T09:15:09.300Z,8.87
2022-11-29T09:17:35.811Z,8.84
2022-11-29T09:20:02.268Z,8.83
2022-11-29T09:22:28.650Z,8.87
2022-11-29T09:24:55.068Z,8.84
2022-11-29T09:27:21.419Z,8.82
2022-11-29T09:29:47.826Z,8.84
2022-11-29T09:32:14.163Z,8.80
2022-11-29T09:34:42.258Z,8.81
2022-11-29T09:37:08.786Z,8.79
2022-11-29T09:39:35.160Z,8.77
2022-11-29T09:42:46.321Z,8.76
2022-11-29T09:45:30.124Z,8.80
2022-11-29T09:48:30.966Z,8.82
2022-11-29T09:51:06.102Z,8.78
2022-11-29T09:53:46.425Z,8.85
2022-11-29T09:56:36.323Z,8.89
2022-11-29T09:59:21.482Z,8.84
2022-11-29T10:01:54.660Z,8.93
2022-11-29T10:04:27.494Z,8.93
2022-11-29T10:07:08.817Z,8.99
2022-11-29T10:09:48.170Z,9.01
2022-11-29T10:12:23.641Z,9.06
2022-11-29T10:14:57.578Z,9.11
2022-11-29T10:17:31.701Z,9.14
2022-11-29T10:20:10.364Z,9.12
2022-11-29T10:22:45.906Z,9.12
2022-11-29T10:25:21.707Z,9.16
2022-11-29T10:27:48.103Z,9.13
2022-11-29T10:30:16.244Z,9.18
2022-11-29T10:32:46.225Z,9.26
2022-11-29T10:35:18.227Z,9.30
2022-11-29T10:38:01.364Z,9.30
2022-11-29T10:40:34.890Z,9.33
2022-11-29T10:43:02.149Z,9.33
2022-11-29T10:45:38.816Z,9.38
2022-11-29T10:48:11.875Z,9.31
2022-11-29T10:50:41.753Z,9.16
2022-11-29T10:53:12.938Z,9.22
2022-11-29T10:55:45.574Z,9.24
2022-11-29T10:58:28.063Z,9.20
2022-11-29T11:01:08.836Z,9.19
2022-11-29T11:03:53.536Z,9.23
2022-11-29T11:06:25.553Z,9.22
2022-11-29T11:09:11.064Z,9.23
2022-11-29T11:11:38.677Z,9.24
2022-11-29T11:14:18.395Z,9.26
2022-11-29T11:16:44.926Z,9.16
2022-11-29T11:19:41.023Z,9.28
2022-11-29T11:22:19.009Z,9.35
2022-11-29T11:24:45.640Z,9.40
2022-11-29T11:27:12.185Z,9.33
2022-11-29T11:29:42.377Z,9.41
2022-11-29T11:32:17.252Z,9.45
2022-11-29T11:34:52.780Z,9.58
2022-11-29T11:37:28.343Z,9.63
2022-11-29T11:39:57.548Z,9.68
2022-11-29T11:42:38.561Z,9.74
2022-11-29T11:45:10.799Z,9.72
2022-11-29T11:47:49.361Z,9.75
2022-11-29T11:50:17.382Z,9.69
2022-11-29T11:52:50.693Z,9.62
2022-11-29T11:55:39.306Z,9.70
2022-11-29T11:58:16.445Z,9.67
2022-11-29T12:01:03.402Z,9.82
2022-11-29T12:03:51.634Z,9.83
2022-11-29T12:06:39.484Z,9.92
2022-11-29T12:09:09.017Z,9.96
2022-11-29T12:11:47.900Z,9.94
2022-11-29T12:14:28.165Z,9.96
2022-11-29T12:17:03.796Z,9.98
2022-11-29T12:19:41.247Z,9.99
2022-11-29T12:22:13.563Z,9.98
2022-11-29T12:24:50.125Z,9.97
2022-11-29T12:27:16.585Z,9.93
2022-11-29T12:29:43.029Z,10.00
2022-11-29T12:32:44.745Z,10.07
2022-11-29T12:35:28.221Z,10.09
2022-11-29T12:38:10.636Z,10.05
2022-11-29T12:40:55.018Z,9.96
2022-11-29T12:43:49.405Z,10.06
2022-11-29T12:46:18.785Z,10.10
2022-11-29T12:49:20.541Z,10.14
2022-11-29T12:52:14.204Z,10.13
2022-11-29T12:54:47.897Z,10.14
2022-11-29T12:57:44.403Z,10.15
2022-11-29T13:00:14.826Z,10.14
2022-11-29T13:02:52.401Z,10.14
2022-11-29T13:05:52.969Z,10.14
2022-11-29T13:08:47.439Z,10.10
2022-11-29T13:11:37.377Z,10.18
2022-11-29T13:14:44.889Z,10.18
2022-11-29T13:17:39.539Z,10.13
2022-11-29T13:20:21.484Z,10.05
2022-11-29T13:23:16.846Z,10.08
2022-11-29T13:25:47.047Z,10.06
2022-11-29T13:28:36.285Z,10.04
2022-11-29T13:31:07.891Z,10.06
2022-11-29T13:33:53.992Z,10.05
2022-11-29T13:36:45.433Z,10.04
2022-11-29T13:39:29.778Z,10.02
2022-11-29T13:42:15.279Z,9.92
2022-11-29T13:45:03.999Z,9.90
2022-11-29T13:47:30.330Z,9.87
2022-11-29T13:50:05.365Z,9.93
2022-11-29T13:53:02.313Z,9.94
2022-11-29T13:55:29.504Z,9.93
2022-11-29T13:58:16.647Z,9.97
2022-11-29T14:00:44.015Z,9.88
2022-11-29T14:03:28.624Z,9.90
2022-11-29T14:06:10.108Z,9.91
2022-11-29T14:09:17.954Z,9.93
2022-11-29T14:11:49.164Z,9.96
2022-11-29T14:14:15.449Z,9.94
2022-11-29T14:16:41.744Z,9.94
2022-11-29T14:19:08.205Z,9.92
2022-11-29T14:21:59.151Z,9.99
2022-11-29T14:24:37.851Z,9.98
2022-11-29T14:27:07.370Z,9.96
2022-11-29T14:29:55.001Z,9.96
2022-11-29T14:32:28.577Z,9.90
2022-11-29T14:35:02.043Z,9.85
2022-11-29T14:37:55.387Z,9.86
2022-11-29T14:40:51.264Z,9.88
2022-11-29T14:43:37.951Z,9.88
2022-11-29T14:46:16.570Z,9.80
2022-11-29T14:48:56.523Z,9.85
2022-11-29T14:51:25.853Z,9.85
2022-11-29T14:54:13.365Z,9.78
2022-11-29T14:56:44.895Z,9.75
2022-11-29T14:59:49.311Z,9.66
2022-11-29T15:02:37.938Z,9.57
2022-11-29T15:05:21.343Z,9.55
2022-11-29T15:08:12.917Z,9.43
2022-11-29T15:10:42.944Z,9.36
2022-11-29T15:13:13.813Z,9.22
2022-11-29T15:15:52.300Z,9.16
2022-11-29T15:18:35.259Z,9.10
2022-11-29T15:21:22.831Z,9.04
2022-11-29T15:24:01.404Z,8.94
2022-11-29T15:26:27.677Z,8.88
2022-11-29T15:28:54.114Z,8.80
2022-11-29T15:31:21.268Z,8.71
2022-11-29T15:33:49.202Z,8.67
2022-11-29T15:36:21.319Z,8.67
2022-11-29T15:38:51.061Z,8.67
2022-11-29T15:41:28.977Z,8.75
2022-11-29T15:44:01.694Z,8.70
2022-11-29T15:46:30.457Z,8.78
2022-11-29T15:49:24.869Z,8.82
2022-11-29T15:51:58.729Z,8.79
2022-11-29T15:54:36.658Z,8.81
2022-11-29T15:57:11.480Z,8.83
2022-11-29T15:59:46.250Z,8.83
2022-11-29T16:02:27.818Z,8.78
2022-11-29T16:04:59.475Z,8.74
2022-11-29T16:07:31.990Z,8.72
2022-11-29T16:10:07.675Z,8.62
2022-11-29T16:12:34.180Z,8.53
2022-11-29T16:15:01.466Z,8.50
2022-11-29T16:17:31.040Z,8.55
2022-11-29T16:20:16.634Z,8.61
2022-11-29T16:22:43.067Z,8.50
2022-11-29T16:25:18.688Z,8.54
2022-11-29T16:27:46.089Z,8.41
2022-11-29T16:30:24.298Z,8.40
2022-11-29T16:32:55.409Z,8.41
2022-11-29T16:35:31.524Z,8.39
2022-11-29T16:37:57.996Z,8.38
2022-11-29T16:40:30.098Z,8.40
2022-11-29T16:43:08.412Z,8.39
2022-11-29T16:45:37.474Z,8.43
2022-11-29T16:48:22.087Z,8.42
2022-11-29T16:51:42.468Z,8.45
2022-11-29T16:54:26.309Z,8.43
2022-11-29T16:56:54.534Z,8.44
2022-11-29T16:59:27.301Z,8.40
2022-11-29T17:01:55.981Z,8.45
2022-11-29T17:04:23.924Z,8.48
2022-11-29T17:06:52.771Z,8.56
2022-11-29T17:09:33.047Z,8.61
2022-11-29T17:12:01.075Z,8.64
2022-11-29T17:14:31.449Z,8.64
2022-11-29T17:17:00.801Z,8.62
2022-11-29T17:19:28.930Z,8.64
2022-11-29T17:21:55.454Z,8.59
2022-11-29T17:24:23.155Z,8.59
2022-11-29T17:26:49.797Z,8.65
2022-11-29T17:29:17.490Z,8.65
2022-11-29T17:31:45.622Z,8.60
2022-11-29T17:34:12.219Z,8.63
2022-11-29T17:36:38.845Z,8.62
2022-11-29T17:39:05.394Z,8.64
2022-11-29T17:41:32.777Z,8.61
2022-11-29T17:43:59.997Z,8.62
2022-11-29T17:46:32.590Z,8.66
2022-11-29T17:49:01.230Z,8.65
2022-11-29T17:54:14.590Z,8.65
2022-11-29T17:56:40.983Z,8.61
2022-11-29T17:59:07.441Z,8.61
2022-11-29T18:01:35.784Z,8.68
2022-11-29T18:04:04.209Z,8.66
2022-11-29T18:06:34.901Z,8.71
2022-11-29T18:09:02.452Z,8.71
2022-11-29T18:11:43.254Z,8.63
2022-11-29T18:14:15.206Z,8.67
2022-11-29T18:16:41.921Z,8.71
2022-11-29T18:19:11.893Z,8.75
2022-11-29T18:21:38.321Z,8.73
2022-11-29T18:24:06.357Z,8.77
2022-11-29T18:26:34.329Z,8.73
2022-11-29T18:29:00.670Z,8.75
2022-11-29T18:31:29.913Z,8.65
2022-11-29T18:33:59.057Z,8.65
2022-11-29T18:36:28.269Z,8.66
2022-11-29T18:38:59.926Z,8.62
2022-11-29T18:41:29.025Z,8.56
2022-11-29T18:43:58.883Z,8.56
2022-11-29T18:46:26.213Z,8.52
2022-11-29T18:48:52.885Z,8.50
2022-11-29T18:51:20.345Z,8.55
2022-11-29T18:53:46.978Z,8.54
2022-11-29T18:56:22.364Z,8.63
2022-11-29T18:58:58.567Z,8.62
2022-11-29T19:01:30.499Z,8.56
2022-11-29T19:03:59.321Z,8.64
2022-11-29T19:06:30.825Z,8.65
2022-11-29T19:09:02.352Z,8.63
2022-11-29T19:11:31.265Z,8.70
2022-11-29T19:14:04.265Z,8.74
2022-11-29T19:16:32.780Z,8.69
2022-11-29T19:19:00.587Z,8.67
2022-11-29T19:21:29.117Z,8.68
2022-11-29T19:23:57.447Z,8.74
2022-11-29T19:26:27.481Z,8.75
2022-11-29T19:28:54.479Z,8.76
2022-11-29T19:31:25.374Z,8.77
2022-11-29T19:33:52.646Z,8.76
2022-11-29T19:36:21.584Z,8.82
2022-11-29T19:38:53.158Z,8.81
2022-11-29T19:41:24.525Z,8.79
2022-11-29T19:43:52.039Z,8.80
2022-11-29T19:46:30.770Z,8.86
2022-11-29T19:49:00.400Z,8.84
2022-11-29T19:51:28.948Z,8.86
2022-11-29T19:53:58.229Z,8.87
2022-11-29T19:56:24.952Z,8.84
2022-11-29T19:58:51.434Z,8.81
2022-11-29T20:01:25.035Z,8.88
2022-11-29T20:03:52.564Z,8.88
2022-11-29T20:06:19.655Z,8.90
2022-11-29T20:08:46.929Z,8.94
2022-11-29T20:11:18.941Z,8.96
2022-11-29T20:13:52.742Z,8.98
2022-11-29T20:16:19.377Z,8.91
2022-11-29T20:18:51.169Z,8.96
2022-11-29T20:21:21.383Z,8.98
2022-11-29T20:23:47.955Z,8.89
2022-11-29T20:26:19.820Z,8.94
2022-11-29T20:28:47.701Z,8.97
2022-11-29T20:31:17.528Z,8.97
2022-11-29T20:33:46.102Z,8.95
2022-11-29T20:36:33.672Z,8.98
2022-11-29T20:39:22.248Z,8.88
2022-11-29T20:41:54.601Z,8.82
2022-11-29T20:44:30.427Z,8.78
2022-11-29T20:46:57.049Z,8.71
2022-11-29T20:49:23.708Z,8.73
2022-11-29T20:51:58.655Z,8.75
2022-11-29T20:54:25.042Z,8.72
2022-11-29T20:56:51.452Z,8.74
2022-11-29T20:59:17.821Z,8.74
2022-11-29T21:01:44.159Z,8.70
2022-11-29T21:04:10.510Z,8.76
2022-11-29T21:06:39.407Z,8.73
2022-11-29T21:09:09.041Z,8.67
2022-11-29T21:11:35.698Z,8.65
2022-11-29T21:14:03.894Z,8.60
2022-11-29T21:16:31.851Z,8.59
2022-11-29T21:19:01.417Z,8.62
2022-11-29T21:21:37.340Z,8.57
2022-11-29T21:24:17.919Z,8.61
2022-11-29T21:26:50.705Z,8.62
2022-11-29T21:29:19.684Z,8.64
2022-11-29T21:31:48.316Z,8.62
2022-11-29T21:34:14.707Z,8.68
2022-11-29T21:36:41.759Z,8.66
2022-11-29T21:39:12.331Z,8.71
2022-11-29T21:41:39.144Z,8.65
2022-11-29T21:44:07.530Z,8.67
2022-11-29T21:46:35.177Z,8.69
2022-11-29T21:49:01.601Z,8.68
2022-11-29T21:51:27.984Z,8.69
2022-11-29T21:53:54.534Z,8.74
2022-11-29T21:56:20.914Z,8.74
2022-11-29T21:58:47.301Z,8.78
2022-11-29T22:01:16.540Z,8.84
2022-11-29T22:03:43.656Z,8.77
2022-11-29T22:06:16.465Z,8.80
2022-11-29T22:08:42.806Z,8.79
2022-11-29T22:11:12.734Z,8.83
2022-11-29T22:14:01.205Z,8.83
2022-11-29T22:16:28.144Z,8.86
2022-11-29T22:18:54.914Z,8.82
2022-11-29T22:21:21.333Z,8.82
2022-11-29T22:23:47.749Z,8.85
2022-11-29T22:26:14.604Z,8.88
2022-11-29T22:28:40.985Z,8.88
2022-11-29T22:31:11.904Z,8.94
2022-11-29T22:33:38.655Z,8.91
2022-11-29T22:36:12.947Z,8.97
2022-11-29T22:38:40.095Z,8.98
2022-11-29T22:41:11.700Z,9.02
2022-11-29T22:43:40.207Z,9.02
2022-11-29T22:46:21.738Z,8.96
2022-11-29T22:48:51.628Z,8.95
2022-11-29T22:51:44.136Z,8.96
2022-11-29T22:54:17.331Z,8.91
2022-11-29T22:56:45.314Z,8.89
2022-11-29T22:59:12.032Z,8.89
2022-11-29T23:01:41.054Z,8.87
2022-11-29T23:04:08.912Z,8.81
2022-11-29T23:06:43.207Z,8.83
2022-11-29T23:09:16.612Z,8.83
2022-11-29T23:11:44.923Z,8.84
2022-11-29T23:14:11.791Z,8.82
2022-11-29T23:16:38.172Z,8.79
2022-11-29T23:19:10.114Z,8.77
2022-11-29T23:21:38.917Z,8.77
2022-11-29T23:24:06.051Z,8.76
2022-11-29T23:26:42.505Z,8.76
2022-11-29T23:29:12.585Z,8.78
2022-11-29T23:31:39.338Z,8.74
2022-11-29T23:34:05.731Z,8.73
2022-11-29T23:36:32.157Z,8.72
2022-11-29T23:38:58.531Z,8.69
2022-11-29T23:41:24.919Z,8.63
2022-11-29T23:43:51.269Z,8.62
2022-11-29T23:46:23.131Z,8.67
2022-11-29T23:48:50.052Z,8.62
2022-11-29T23:51:17.593Z,8.62
2022-11-29T23:53:44.493Z,8.56
2022-11-29T23:56:13.894Z,8.55
2022-11-29T23:58:41.287Z,8.54
